sensor_id;sensor_type;location;lat;lon;timestamp;P1;durP1;ratioP1;P2;durP2;ratioP2
32200;SDS011;18701;45.588;5.288;2023-07-29T00:01:27;3.00;;;1.92;;
32200;SDS011;18701;45.588;5.288;2023-07-29T00:03:52;2.97;;;1.98;;
32200;SDS011;18701;45.588;5.288;2023-07-29T00:06:18;6.13;;;1.95;;
32200;SDS011;18701;45.588;5.288;2023-07-29T00:08:43;7.15;;;2.50;;
32200;SDS011;18701;45.588;5.288;2023-07-29T00:11:09;6.07;;;2.08;;
32200;SDS011;18701;45.588;5.288;2023-07-29T00:13:34;6.38;;;2.72;;
32200;SDS011;18701;45.588;5.288;2023-07-29T00:16:00;3.28;;;2.25;;
32200;SDS011;18701;45.588;5.288;2023-07-29T00:18:26;5.70;;;2.38;;
32200;SDS011;18701;45.588;5.288;2023-07-29T00:20:52;5.25;;;1.88;;
32200;SDS011;18701;45.588;5.288;2023-07-29T00:23:18;3.10;;;2.13;;
32200;SDS011;18701;45.588;5.288;2023-07-29T00:25:44;4.38;;;2.13;;
32200;SDS011;18701;45.588;5.288;2023-07-29T00:28:11;5.53;;;2.33;;
32200;SDS011;18701;45.588;5.288;2023-07-29T00:30:37;8.43;;;2.42;;
32200;SDS011;18701;45.588;5.288;2023-07-29T00:33:02;5.38;;;2.28;;
32200;SDS011;18701;45.588;5.288;2023-07-29T00:35:28;2.75;;;2.20;;
32200;SDS011;18701;45.588;5.288;2023-07-29T00:37:53;3.20;;;2.00;;
32200;SDS011;18701;45.588;5.288;2023-07-29T00:40:19;2.80;;;1.80;;
32200;SDS011;18701;45.588;5.288;2023-07-29T00:42:46;3.83;;;2.33;;
32200;SDS011;18701;45.588;5.288;2023-07-29T00:45:12;6.38;;;2.28;;
32200;SDS011;18701;45.588;5.288;2023-07-29T00:47:38;4.65;;;2.22;;
32200;SDS011;18701;45.588;5.288;2023-07-29T00:50:04;4.88;;;2.20;;
32200;SDS011;18701;45.588;5.288;2023-07-29T00:52:31;3.95;;;2.30;;
32200;SDS011;18701;45.588;5.288;2023-07-29T00:54:57;3.38;;;1.83;;
32200;SDS011;18701;45.588;5.288;2023-07-29T00:57:22;3.72;;;2.28;;
32200;SDS011;18701;45.588;5.288;2023-07-29T00:59:50;6.85;;;2.33;;
32200;SDS011;18701;45.588;5.288;2023-07-29T01:02:16;4.18;;;2.40;;
32200;SDS011;18701;45.588;5.288;2023-07-29T01:04:42;3.55;;;2.30;;
32200;SDS011;18701;45.588;5.288;2023-07-29T01:15:17;4.78;;;2.00;;
32200;SDS011;18701;45.588;5.288;2023-07-29T01:17:49;8.40;;;2.40;;
32200;SDS011;18701;45.588;5.288;2023-07-29T01:20:19;4.82;;;1.80;;
32200;SDS011;18701;45.588;5.288;2023-07-29T01:22:46;4.15;;;2.67;;
32200;SDS011;18701;45.588;5.288;2023-07-29T01:25:12;2.92;;;2.08;;
32200;SDS011;18701;45.588;5.288;2023-07-29T01:27:38;2.38;;;1.80;;
32200;SDS011;18701;45.588;5.288;2023-07-29T01:30:05;2.10;;;1.90;;
32200;SDS011;18701;45.588;5.288;2023-07-29T01:35:27;3.22;;;1.98;;
32200;SDS011;18701;45.588;5.288;2023-07-29T01:38:17;1.70;;;1.50;;
32200;SDS011;18701;45.588;5.288;2023-07-29T01:40:45;5.00;;;2.08;;
32200;SDS011;18701;45.588;5.288;2023-07-29T01:43:13;6.95;;;2.03;;
32200;SDS011;18701;45.588;5.288;2023-07-29T01:45:39;4.43;;;2.08;;
32200;SDS011;18701;45.588;5.288;2023-07-29T01:48:05;4.22;;;2.47;;
32200;SDS011;18701;45.588;5.288;2023-07-29T01:50:32;3.72;;;2.10;;
32200;SDS011;18701;45.588;5.288;2023-07-29T01:52:58;4.18;;;1.65;;
32200;SDS011;18701;45.588;5.288;2023-07-29T01:55:24;2.80;;;2.10;;
32200;SDS011;18701;45.588;5.288;2023-07-29T01:57:49;3.13;;;2.03;;
32200;SDS011;18701;45.588;5.288;2023-07-29T02:00:16;5.65;;;2.28;;
32200;SDS011;18701;45.588;5.288;2023-07-29T02:02:42;3.15;;;1.60;;
32200;SDS011;18701;45.588;5.288;2023-07-29T02:05:08;3.63;;;2.17;;
32200;SDS011;18701;45.588;5.288;2023-07-29T02:07:33;3.08;;;1.98;;
32200;SDS011;18701;45.588;5.288;2023-07-29T02:09:59;4.75;;;1.90;;
32200;SDS011;18701;45.588;5.288;2023-07-29T02:12:25;7.97;;;2.42;;
32200;SDS011;18701;45.588;5.288;2023-07-29T02:14:50;5.32;;;2.20;;
32200;SDS011;18701;45.588;5.288;2023-07-29T02:17:16;3.50;;;1.98;;
32200;SDS011;18701;45.588;5.288;2023-07-29T02:19:42;3.10;;;1.60;;
32200;SDS011;18701;45.588;5.288;2023-07-29T02:22:07;3.38;;;1.63;;
32200;SDS011;18701;45.588;5.288;2023-07-29T02:24:33;2.30;;;1.67;;
32200;SDS011;18701;45.588;5.288;2023-07-29T02:26:58;3.20;;;1.75;;
32200;SDS011;18701;45.588;5.288;2023-07-29T02:29:24;4.10;;;1.42;;
32200;SDS011;18701;45.588;5.288;2023-07-29T02:31:50;3.70;;;1.90;;
32200;SDS011;18701;45.588;5.288;2023-07-29T02:34:16;2.13;;;1.77;;
32200;SDS011;18701;45.588;5.288;2023-07-29T02:36:41;3.78;;;1.92;;
32200;SDS011;18701;45.588;5.288;2023-07-29T02:39:07;4.88;;;1.55;;
32200;SDS011;18701;45.588;5.288;2023-07-29T02:41:33;3.95;;;1.85;;
32200;SDS011;18701;45.588;5.288;2023-07-29T02:43:58;7.32;;;1.60;;
32200;SDS011;18701;45.588;5.288;2023-07-29T02:46:24;1.45;;;1.02;;
32200;SDS011;18701;45.588;5.288;2023-07-29T02:48:50;5.43;;;1.60;;
32200;SDS011;18701;45.588;5.288;2023-07-29T02:51:15;4.40;;;1.77;;
32200;SDS011;18701;45.588;5.288;2023-07-29T02:53:41;2.10;;;1.67;;
32200;SDS011;18701;45.588;5.288;2023-07-29T02:56:06;3.60;;;1.50;;
32200;SDS011;18701;45.588;5.288;2023-07-29T02:58:34;2.63;;;1.20;;
32200;SDS011;18701;45.588;5.288;2023-07-29T03:01:00;4.00;;;1.23;;
32200;SDS011;18701;45.588;5.288;2023-07-29T03:03:29;7.13;;;1.60;;
32200;SDS011;18701;45.588;5.288;2023-07-29T03:06:02;3.65;;;1.80;;
32200;SDS011;18701;45.588;5.288;2023-07-29T03:08:29;1.65;;;1.33;;
32200;SDS011;18701;45.588;5.288;2023-07-29T03:10:55;4.30;;;1.90;;
32200;SDS011;18701;45.588;5.288;2023-07-29T03:13:21;3.97;;;1.55;;
32200;SDS011;18701;45.588;5.288;2023-07-29T03:15:47;5.25;;;1.30;;
32200;SDS011;18701;45.588;5.288;2023-07-29T03:18:13;4.30;;;1.60;;
32200;SDS011;18701;45.588;5.288;2023-07-29T03:20:38;2.38;;;1.58;;
32200;SDS011;18701;45.588;5.288;2023-07-29T03:23:04;2.40;;;1.33;;
32200;SDS011;18701;45.588;5.288;2023-07-29T03:25:29;3.38;;;1.40;;
32200;SDS011;18701;45.588;5.288;2023-07-29T03:27:55;2.30;;;1.35;;
32200;SDS011;18701;45.588;5.288;2023-07-29T03:30:21;4.03;;;1.20;;
32200;SDS011;18701;45.588;5.288;2023-07-29T03:32:47;4.25;;;1.50;;
32200;SDS011;18701;45.588;5.288;2023-07-29T03:35:13;1.88;;;1.20;;
32200;SDS011;18701;45.588;5.288;2023-07-29T03:37:39;2.97;;;1.35;;
32200;SDS011;18701;45.588;5.288;2023-07-29T03:40:06;2.08;;;1.52;;
32200;SDS011;18701;45.588;5.288;2023-07-29T03:42:32;4.07;;;1.27;;
32200;SDS011;18701;45.588;5.288;2023-07-29T03:44:58;2.42;;;1.45;;
32200;SDS011;18701;45.588;5.288;2023-07-29T03:47:23;4.13;;;1.48;;
32200;SDS011;18701;45.588;5.288;2023-07-29T03:49:49;1.83;;;1.20;;
32200;SDS011;18701;45.588;5.288;2023-07-29T03:52:15;2.92;;;1.40;;
32200;SDS011;18701;45.588;5.288;2023-07-29T03:54:40;1.90;;;1.15;;
32200;SDS011;18701;45.588;5.288;2023-07-29T03:57:06;3.08;;;1.48;;
32200;SDS011;18701;45.588;5.288;2023-07-29T03:59:32;2.88;;;1.52;;
32200;SDS011;18701;45.588;5.288;2023-07-29T04:01:58;2.90;;;1.30;;
32200;SDS011;18701;45.588;5.288;2023-07-29T04:04:23;1.50;;;1.30;;
32200;SDS011;18701;45.588;5.288;2023-07-29T04:06:49;2.17;;;1.02;;
32200;SDS011;18701;45.588;5.288;2023-07-29T04:09:15;2.50;;;1.30;;
32200;SDS011;18701;45.588;5.288;2023-07-29T04:11:40;3.03;;;1.50;;
32200;SDS011;18701;45.588;5.288;2023-07-29T04:14:06;4.47;;;1.45;;
32200;SDS011;18701;45.588;5.288;2023-07-29T04:16:31;2.22;;;1.50;;
32200;SDS011;18701;45.588;5.288;2023-07-29T04:18:57;2.80;;;1.40;;
32200;SDS011;18701;45.588;5.288;2023-07-29T04:21:22;3.85;;;1.38;;
32200;SDS011;18701;45.588;5.288;2023-07-29T04:23:48;2.85;;;1.23;;
32200;SDS011;18701;45.588;5.288;2023-07-29T04:26:14;2.70;;;1.52;;
32200;SDS011;18701;45.588;5.288;2023-07-29T04:28:39;2.83;;;1.60;;
32200;SDS011;18701;45.588;5.288;2023-07-29T04:31:05;3.70;;;1.15;;
32200;SDS011;18701;45.588;5.288;2023-07-29T04:33:30;2.00;;;1.58;;
32200;SDS011;18701;45.588;5.288;2023-07-29T04:35:56;1.50;;;0.98;;
32200;SDS011;18701;45.588;5.288;2023-07-29T04:38:22;2.33;;;1.85;;
32200;SDS011;18701;45.588;5.288;2023-07-29T04:40:49;3.05;;;1.60;;
32200;SDS011;18701;45.588;5.288;2023-07-29T04:43:15;2.20;;;1.58;;
32200;SDS011;18701;45.588;5.288;2023-07-29T04:45:43;1.95;;;1.30;;
32200;SDS011;18701;45.588;5.288;2023-07-29T04:48:09;2.75;;;1.52;;
32200;SDS011;18701;45.588;5.288;2023-07-29T04:50:35;2.47;;;1.58;;
32200;SDS011;18701;45.588;5.288;2023-07-29T04:53:00;4.20;;;1.60;;
32200;SDS011;18701;45.588;5.288;2023-07-29T04:55:26;4.72;;;1.60;;
32200;SDS011;18701;45.588;5.288;2023-07-29T04:57:51;2.28;;;1.30;;
32200;SDS011;18701;45.588;5.288;2023-07-29T05:00:17;1.92;;;1.48;;
32200;SDS011;18701;45.588;5.288;2023-07-29T05:02:43;5.88;;;1.67;;
32200;SDS011;18701;45.588;5.288;2023-07-29T05:05:08;3.03;;;1.55;;
32200;SDS011;18701;45.588;5.288;2023-07-29T05:07:34;1.40;;;1.27;;
32200;SDS011;18701;45.588;5.288;2023-07-29T05:09:59;3.05;;;1.50;;
32200;SDS011;18701;45.588;5.288;2023-07-29T05:12:25;6.10;;;1.23;;
32200;SDS011;18701;45.588;5.288;2023-07-29T05:14:51;2.63;;;1.38;;
32200;SDS011;18701;45.588;5.288;2023-07-29T05:17:16;2.65;;;1.83;;
32200;SDS011;18701;45.588;5.288;2023-07-29T05:19:42;2.42;;;1.95;;
32200;SDS011;18701;45.588;5.288;2023-07-29T05:22:07;1.98;;;1.48;;
32200;SDS011;18701;45.588;5.288;2023-07-29T05:24:33;1.95;;;1.50;;
32200;SDS011;18701;45.588;5.288;2023-07-29T05:26:58;3.17;;;1.50;;
32200;SDS011;18701;45.588;5.288;2023-07-29T05:29:24;3.08;;;1.63;;
32200;SDS011;18701;45.588;5.288;2023-07-29T05:31:50;3.47;;;1.63;;
32200;SDS011;18701;45.588;5.288;2023-07-29T05:34:15;4.20;;;1.77;;
32200;SDS011;18701;45.588;5.288;2023-07-29T05:36:41;2.05;;;1.63;;
32200;SDS011;18701;45.588;5.288;2023-07-29T05:39:06;2.30;;;1.67;;
32200;SDS011;18701;45.588;5.288;2023-07-29T05:41:32;4.20;;;1.92;;
32200;SDS011;18701;45.588;5.288;2023-07-29T05:43:58;4.70;;;1.63;;
32200;SDS011;18701;45.588;5.288;2023-07-29T05:46:23;1.15;;;1.02;;
32200;SDS011;18701;45.588;5.288;2023-07-29T05:48:49;3.10;;;1.45;;
32200;SDS011;18701;45.588;5.288;2023-07-29T05:51:16;5.03;;;1.67;;
32200;SDS011;18701;45.588;5.288;2023-07-29T05:53:42;4.10;;;1.30;;
32200;SDS011;18701;45.588;5.288;2023-07-29T05:56:07;2.60;;;1.40;;
32200;SDS011;18701;45.588;5.288;2023-07-29T05:58:33;1.88;;;1.45;;
32200;SDS011;18701;45.588;5.288;2023-07-29T06:00:58;4.60;;;2.05;;
32200;SDS011;18701;45.588;5.288;2023-07-29T06:03:24;4.05;;;1.98;;
32200;SDS011;18701;45.588;5.288;2023-07-29T06:05:49;1.60;;;1.48;;
32200;SDS011;18701;45.588;5.288;2023-07-29T06:08:15;5.10;;;1.42;;
32200;SDS011;18701;45.588;5.288;2023-07-29T06:10:41;5.30;;;1.67;;
32200;SDS011;18701;45.588;5.288;2023-07-29T06:13:06;3.70;;;1.55;;
32200;SDS011;18701;45.588;5.288;2023-07-29T06:15:32;4.45;;;1.27;;
32200;SDS011;18701;45.588;5.288;2023-07-29T06:17:57;3.45;;;1.67;;
32200;SDS011;18701;45.588;5.288;2023-07-29T06:20:23;2.47;;;1.45;;
32200;SDS011;18701;45.588;5.288;2023-07-29T06:22:49;2.28;;;1.52;;
32200;SDS011;18701;45.588;5.288;2023-07-29T06:25:14;3.13;;;1.40;;
32200;SDS011;18701;45.588;5.288;2023-07-29T06:27:40;2.15;;;1.38;;
32200;SDS011;18701;45.588;5.288;2023-07-29T06:30:05;6.07;;;1.50;;
32200;SDS011;18701;45.588;5.288;2023-07-29T06:32:32;2.08;;;1.40;;
32200;SDS011;18701;45.588;5.288;2023-07-29T06:34:57;4.35;;;1.75;;
32200;SDS011;18701;45.588;5.288;2023-07-29T06:37:23;2.95;;;1.90;;
32200;SDS011;18701;45.588;5.288;2023-07-29T06:39:48;2.38;;;1.65;;
32200;SDS011;18701;45.588;5.288;2023-07-29T06:42:14;3.08;;;2.10;;
32200;SDS011;18701;45.588;5.288;2023-07-29T06:44:40;3.58;;;1.80;;
32200;SDS011;18701;45.588;5.288;2023-07-29T06:47:05;2.58;;;1.85;;
32200;SDS011;18701;45.588;5.288;2023-07-29T06:49:31;2.60;;;1.63;;
32200;SDS011;18701;45.588;5.288;2023-07-29T06:51:56;2.97;;;1.70;;
32200;SDS011;18701;45.588;5.288;2023-07-29T06:54:25;4.25;;;1.65;;
32200;SDS011;18701;45.588;5.288;2023-07-29T06:56:51;2.45;;;1.35;;
32200;SDS011;18701;45.588;5.288;2023-07-29T06:59:17;2.72;;;1.90;;
32200;SDS011;18701;45.588;5.288;2023-07-29T07:01:42;4.15;;;1.77;;
32200;SDS011;18701;45.588;5.288;2023-07-29T07:04:08;2.13;;;1.65;;
32200;SDS011;18701;45.588;5.288;2023-07-29T07:06:34;2.03;;;1.45;;
32200;SDS011;18701;45.588;5.288;2023-07-29T07:08:59;3.58;;;1.35;;
32200;SDS011;18701;45.588;5.288;2023-07-29T07:11:25;3.72;;;2.15;;
32200;SDS011;18701;45.588;5.288;2023-07-29T07:13:50;4.82;;;1.63;;
32200;SDS011;18701;45.588;5.288;2023-07-29T07:16:16;3.10;;;1.73;;
32200;SDS011;18701;45.588;5.288;2023-07-29T07:18:42;9.57;;;1.88;;
32200;SDS011;18701;45.588;5.288;2023-07-29T07:21:07;6.78;;;1.50;;
32200;SDS011;18701;45.588;5.288;2023-07-29T07:23:33;3.92;;;1.67;;
32200;SDS011;18701;45.588;5.288;2023-07-29T07:25:58;2.90;;;1.67;;
32200;SDS011;18701;45.588;5.288;2023-07-29T07:28:24;7.15;;;2.22;;
32200;SDS011;18701;45.588;5.288;2023-07-29T07:30:49;3.25;;;1.70;;
32200;SDS011;18701;45.588;5.288;2023-07-29T07:33:15;4.60;;;1.50;;
32200;SDS011;18701;45.588;5.288;2023-07-29T07:35:40;4.30;;;1.95;;
32200;SDS011;18701;45.588;5.288;2023-07-29T07:38:07;3.20;;;2.33;;
32200;SDS011;18701;45.588;5.288;2023-07-29T07:40:34;2.88;;;1.40;;
32200;SDS011;18701;45.588;5.288;2023-07-29T07:43:00;3.20;;;1.42;;
32200;SDS011;18701;45.588;5.288;2023-07-29T07:45:26;2.40;;;1.77;;
32200;SDS011;18701;45.588;5.288;2023-07-29T07:47:52;3.30;;;1.90;;
32200;SDS011;18701;45.588;5.288;2023-07-29T07:50:20;7.43;;;2.53;;
32200;SDS011;18701;45.588;5.288;2023-07-29T07:52:46;14.30;;;2.75;;
32200;SDS011;18701;45.588;5.288;2023-07-29T07:55:12;13.57;;;4.05;;
32200;SDS011;18701;45.588;5.288;2023-07-29T07:57:38;18.05;;;5.80;;
32200;SDS011;18701;45.588;5.288;2023-07-29T08:00:03;8.68;;;4.78;;
32200;SDS011;18701;45.588;5.288;2023-07-29T08:02:29;4.00;;;2.53;;
32200;SDS011;18701;45.588;5.288;2023-07-29T08:04:55;7.18;;;2.00;;
32200;SDS011;18701;45.588;5.288;2023-07-29T08:07:21;6.20;;;1.67;;
32200;SDS011;18701;45.588;5.288;2023-07-29T08:09:46;3.28;;;1.52;;
32200;SDS011;18701;45.588;5.288;2023-07-29T08:12:12;2.92;;;1.35;;
32200;SDS011;18701;45.588;5.288;2023-07-29T08:14:37;2.45;;;1.50;;
32200;SDS011;18701;45.588;5.288;2023-07-29T08:17:03;2.65;;;1.75;;
32200;SDS011;18701;45.588;5.288;2023-07-29T08:19:29;7.05;;;1.95;;
32200;SDS011;18701;45.588;5.288;2023-07-29T08:21:55;2.65;;;2.00;;
32200;SDS011;18701;45.588;5.288;2023-07-29T08:24:20;5.20;;;1.90;;
32200;SDS011;18701;45.588;5.288;2023-07-29T08:26:46;8.35;;;2.35;;
32200;SDS011;18701;45.588;5.288;2023-07-29T08:29:11;2.45;;;1.60;;
32200;SDS011;18701;45.588;5.288;2023-07-29T08:31:37;5.47;;;1.83;;
32200;SDS011;18701;45.588;5.288;2023-07-29T08:34:03;5.97;;;1.95;;
32200;SDS011;18701;45.588;5.288;2023-07-29T08:36:29;7.60;;;1.70;;
32200;SDS011;18701;45.588;5.288;2023-07-29T08:38:54;8.45;;;2.15;;
32200;SDS011;18701;45.588;5.288;2023-07-29T08:41:31;2.92;;;2.10;;
32200;SDS011;18701;45.588;5.288;2023-07-29T08:44:23;3.30;;;1.30;;
32200;SDS011;18701;45.588;5.288;2023-07-29T08:46:49;5.57;;;1.83;;
32200;SDS011;18701;45.588;5.288;2023-07-29T08:49:15;5.68;;;2.10;;
32200;SDS011;18701;45.588;5.288;2023-07-29T08:51:44;2.65;;;1.90;;
32200;SDS011;18701;45.588;5.288;2023-07-29T08:54:11;4.38;;;1.48;;
32200;SDS011;18701;45.588;5.288;2023-07-29T08:56:38;2.75;;;1.52;;
32200;SDS011;18701;45.588;5.288;2023-07-29T08:59:05;2.22;;;1.40;;
32200;SDS011;18701;45.588;5.288;2023-07-29T09:01:32;2.60;;;2.05;;
32200;SDS011;18701;45.588;5.288;2023-07-29T09:03:57;4.10;;;1.77;;
32200;SDS011;18701;45.588;5.288;2023-07-29T09:06:24;5.20;;;1.70;;
32200;SDS011;18701;45.588;5.288;2023-07-29T09:08:50;6.63;;;2.53;;
32200;SDS011;18701;45.588;5.288;2023-07-29T09:11:18;6.78;;;1.83;;
32200;SDS011;18701;45.588;5.288;2023-07-29T09:13:45;4.57;;;1.95;;
32200;SDS011;18701;45.588;5.288;2023-07-29T09:16:11;4.03;;;1.90;;
32200;SDS011;18701;45.588;5.288;2023-07-29T09:18:37;3.42;;;2.35;;
32200;SDS011;18701;45.588;5.288;2023-07-29T09:21:03;7.90;;;2.75;;
32200;SDS011;18701;45.588;5.288;2023-07-29T09:23:28;8.40;;;2.17;;
32200;SDS011;18701;45.588;5.288;2023-07-29T09:26:05;6.32;;;2.53;;
32200;SDS011;18701;45.588;5.288;2023-07-29T09:28:34;3.45;;;2.20;;
32200;SDS011;18701;45.588;5.288;2023-07-29T09:31:01;4.65;;;2.63;;
32200;SDS011;18701;45.588;5.288;2023-07-29T09:33:36;9.38;;;2.45;;
32200;SDS011;18701;45.588;5.288;2023-07-29T09:36:07;7.43;;;3.17;;
32200;SDS011;18701;45.588;5.288;2023-07-29T09:38:34;4.93;;;2.28;;
32200;SDS011;18701;45.588;5.288;2023-07-29T09:41:00;5.85;;;2.15;;
32200;SDS011;18701;45.588;5.288;2023-07-29T09:43:33;4.00;;;2.60;;
32200;SDS011;18701;45.588;5.288;2023-07-29T09:46:03;4.10;;;2.75;;
32200;SDS011;18701;45.588;5.288;2023-07-29T09:48:35;10.95;;;2.65;;
32200;SDS011;18701;45.588;5.288;2023-07-29T09:51:11;11.82;;;2.95;;
32200;SDS011;18701;45.588;5.288;2023-07-29T09:53:44;7.47;;;2.42;;
32200;SDS011;18701;45.588;5.288;2023-07-29T09:56:11;5.53;;;2.55;;
32200;SDS011;18701;45.588;5.288;2023-07-29T09:58:38;3.95;;;2.38;;
32200;SDS011;18701;45.588;5.288;2023-07-29T10:01:04;4.25;;;2.20;;
32200;SDS011;18701;45.588;5.288;2023-07-29T10:03:34;3.97;;;2.45;;
32200;SDS011;18701;45.588;5.288;2023-07-29T10:06:03;6.75;;;2.45;;
32200;SDS011;18701;45.588;5.288;2023-07-29T10:08:30;8.07;;;2.45;;
32200;SDS011;18701;45.588;5.288;2023-07-29T10:11:07;3.25;;;2.42;;
32200;SDS011;18701;45.588;5.288;2023-07-29T10:13:33;4.20;;;2.50;;
32200;SDS011;18701;45.588;5.288;2023-07-29T10:15:59;5.90;;;2.22;;
32200;SDS011;18701;45.588;5.288;2023-07-29T10:18:29;6.75;;;2.00;;
32200;SDS011;18701;45.588;5.288;2023-07-29T10:20:56;3.13;;;2.17;;
32200;SDS011;18701;45.588;5.288;2023-07-29T10:23:23;4.10;;;1.98;;
32200;SDS011;18701;45.588;5.288;2023-07-29T10:25:54;3.58;;;1.88;;
32200;SDS011;18701;45.588;5.288;2023-07-29T10:28:30;6.32;;;1.98;;
32200;SDS011;18701;45.588;5.288;2023-07-29T10:30:57;4.32;;;1.88;;
32200;SDS011;18701;45.588;5.288;2023-07-29T10:33:24;4.15;;;1.40;;
32200;SDS011;18701;45.588;5.288;2023-07-29T10:35:50;5.97;;;1.77;;
32200;SDS011;18701;45.588;5.288;2023-07-29T10:38:17;3.38;;;2.13;;
32200;SDS011;18701;45.588;5.288;2023-07-29T10:40:44;5.22;;;1.58;;
32200;SDS011;18701;45.588;5.288;2023-07-29T10:43:31;2.97;;;1.98;;
32200;SDS011;18701;45.588;5.288;2023-07-29T10:45:59;3.83;;;1.65;;
32200;SDS011;18701;45.588;5.288;2023-07-29T10:48:43;4.00;;;1.90;;
32200;SDS011;18701;45.588;5.288;2023-07-29T10:54:00;4.15;;;1.70;;
32200;SDS011;18701;45.588;5.288;2023-07-29T10:56:29;3.78;;;1.60;;
32200;SDS011;18701;45.588;5.288;2023-07-29T11:04:24;8.88;;;1.55;;
32200;SDS011;18701;45.588;5.288;2023-07-29T11:09:42;5.60;;;2.08;;
32200;SDS011;18701;45.588;5.288;2023-07-29T11:15:00;2.53;;;1.40;;
32200;SDS011;18701;45.588;5.288;2023-07-29T11:17:34;4.15;;;1.70;;
32200;SDS011;18701;45.588;5.288;2023-07-29T11:20:00;1.95;;;1.58;;
32200;SDS011;18701;45.588;5.288;2023-07-29T11:22:28;2.88;;;1.65;;
32200;SDS011;18701;45.588;5.288;2023-07-29T11:24:54;7.68;;;1.70;;
32200;SDS011;18701;45.588;5.288;2023-07-29T11:27:20;9.30;;;2.53;;
32200;SDS011;18701;45.588;5.288;2023-07-29T11:29:46;5.75;;;2.20;;
32200;SDS011;18701;45.588;5.288;2023-07-29T11:32:12;3.17;;;2.30;;
32200;SDS011;18701;45.588;5.288;2023-07-29T11:34:38;2.88;;;2.08;;
32200;SDS011;18701;45.588;5.288;2023-07-29T11:37:05;3.03;;;2.35;;
32200;SDS011;18701;45.588;5.288;2023-07-29T11:39:31;6.93;;;2.60;;
32200;SDS011;18701;45.588;5.288;2023-07-29T11:41:58;6.68;;;2.78;;
32200;SDS011;18701;45.588;5.288;2023-07-29T11:44:24;4.05;;;2.45;;
32200;SDS011;18701;45.588;5.288;2023-07-29T11:46:50;11.52;;;2.42;;
32200;SDS011;18701;45.588;5.288;2023-07-29T11:49:15;3.53;;;2.20;;
32200;SDS011;18701;45.588;5.288;2023-07-29T11:51:41;5.93;;;2.22;;
32200;SDS011;18701;45.588;5.288;2023-07-29T11:54:08;3.47;;;1.73;;
32200;SDS011;18701;45.588;5.288;2023-07-29T11:56:33;3.08;;;1.92;;
32200;SDS011;18701;45.588;5.288;2023-07-29T11:59:00;3.85;;;2.45;;
32200;SDS011;18701;45.588;5.288;2023-07-29T12:01:27;6.15;;;2.20;;
32200;SDS011;18701;45.588;5.288;2023-07-29T12:03:54;8.50;;;3.08;;
32200;SDS011;18701;45.588;5.288;2023-07-29T12:06:20;4.80;;;2.50;;
32200;SDS011;18701;45.588;5.288;2023-07-29T12:08:47;5.10;;;2.55;;
32200;SDS011;18701;45.588;5.288;2023-07-29T12:11:13;3.60;;;2.60;;
32200;SDS011;18701;45.588;5.288;2023-07-29T12:13:41;6.18;;;2.33;;
32200;SDS011;18701;45.588;5.288;2023-07-29T12:16:07;2.35;;;2.00;;
32200;SDS011;18701;45.588;5.288;2023-07-29T12:18:32;3.45;;;1.92;;
32200;SDS011;18701;45.588;5.288;2023-07-29T12:20:59;5.78;;;2.15;;
32200;SDS011;18701;45.588;5.288;2023-07-29T12:23:25;5.43;;;2.15;;
32200;SDS011;18701;45.588;5.288;2023-07-29T12:25:51;3.28;;;1.90;;
32200;SDS011;18701;45.588;5.288;2023-07-29T12:28:22;4.80;;;2.15;;
32200;SDS011;18701;45.588;5.288;2023-07-29T12:30:47;7.13;;;2.28;;
32200;SDS011;18701;45.588;5.288;2023-07-29T12:33:33;2.58;;;2.08;;
32200;SDS011;18701;45.588;5.288;2023-07-29T12:36:01;2.95;;;2.03;;
32200;SDS011;18701;45.588;5.288;2023-07-29T12:38:28;3.47;;;2.65;;
32200;SDS011;18701;45.588;5.288;2023-07-29T12:40:54;9.57;;;2.70;;
32200;SDS011;18701;45.588;5.288;2023-07-29T12:43:20;9.13;;;3.30;;
32200;SDS011;18701;45.588;5.288;2023-07-29T12:45:46;10.23;;;3.58;;
32200;SDS011;18701;45.588;5.288;2023-07-29T12:48:14;12.70;;;3.17;;
32200;SDS011;18701;45.588;5.288;2023-07-29T12:50:40;8.80;;;2.60;;
32200;SDS011;18701;45.588;5.288;2023-07-29T12:53:06;6.53;;;2.50;;
32200;SDS011;18701;45.588;5.288;2023-07-29T12:55:33;3.00;;;2.30;;
32200;SDS011;18701;45.588;5.288;2023-07-29T12:57:59;2.42;;;1.80;;
32200;SDS011;18701;45.588;5.288;2023-07-29T13:00:24;3.70;;;1.90;;
32200;SDS011;18701;45.588;5.288;2023-07-29T13:02:50;2.75;;;2.00;;
32200;SDS011;18701;45.588;5.288;2023-07-29T13:05:16;2.45;;;1.48;;
32200;SDS011;18701;45.588;5.288;2023-07-29T13:07:42;4.68;;;1.40;;
32200;SDS011;18701;45.588;5.288;2023-07-29T13:10:08;1.77;;;1.30;;
32200;SDS011;18701;45.588;5.288;2023-07-29T13:12:34;4.75;;;1.50;;
32200;SDS011;18701;45.588;5.288;2023-07-29T13:15:00;2.50;;;1.80;;
32200;SDS011;18701;45.588;5.288;2023-07-29T13:17:26;3.10;;;1.52;;
32200;SDS011;18701;45.588;5.288;2023-07-29T13:19:51;2.38;;;1.52;;
32200;SDS011;18701;45.588;5.288;2023-07-29T13:22:17;3.10;;;1.80;;
32200;SDS011;18701;45.588;5.288;2023-07-29T13:24:44;1.77;;;1.50;;
32200;SDS011;18701;45.588;5.288;2023-07-29T13:27:10;2.67;;;1.10;;
32200;SDS011;18701;45.588;5.288;2023-07-29T13:29:35;3.25;;;1.35;;
32200;SDS011;18701;45.588;5.288;2023-07-29T13:32:01;3.50;;;1.50;;
32200;SDS011;18701;45.588;5.288;2023-07-29T13:34:26;2.53;;;1.30;;
32200;SDS011;18701;45.588;5.288;2023-07-29T13:36:52;2.00;;;1.20;;
32200;SDS011;18701;45.588;5.288;2023-07-29T13:39:18;1.40;;;0.98;;
32200;SDS011;18701;45.588;5.288;2023-07-29T13:41:43;1.20;;;0.90;;
32200;SDS011;18701;45.588;5.288;2023-07-29T13:44:09;2.40;;;0.80;;
32200;SDS011;18701;45.588;5.288;2023-07-29T13:46:35;2.20;;;1.20;;
32200;SDS011;18701;45.588;5.288;2023-07-29T13:49:00;3.75;;;1.30;;
32200;SDS011;18701;45.588;5.288;2023-07-29T13:51:27;1.38;;;0.57;;
32200;SDS011;18701;45.588;5.288;2023-07-29T13:53:52;2.42;;;1.05;;
32200;SDS011;18701;45.588;5.288;2023-07-29T13:56:18;1.95;;;1.00;;
32200;SDS011;18701;45.588;5.288;2023-07-29T13:58:43;1.65;;;0.70;;
32200;SDS011;18701;45.588;5.288;2023-07-29T14:01:09;1.20;;;1.10;;
32200;SDS011;18701;45.588;5.288;2023-07-29T14:03:34;6.78;;;0.77;;
32200;SDS011;18701;45.588;5.288;2023-07-29T14:06:00;0.90;;;0.80;;
32200;SDS011;18701;45.588;5.288;2023-07-29T14:08:25;3.00;;;0.90;;
32200;SDS011;18701;45.588;5.288;2023-07-29T14:10:51;2.55;;;1.02;;
32200;SDS011;18701;45.588;5.288;2023-07-29T14:13:17;1.23;;;0.65;;
32200;SDS011;18701;45.588;5.288;2023-07-29T14:15:42;2.13;;;0.57;;
32200;SDS011;18701;45.588;5.288;2023-07-29T14:18:08;1.08;;;0.80;;
32200;SDS011;18701;45.588;5.288;2023-07-29T14:20:33;1.60;;;0.80;;
32200;SDS011;18701;45.588;5.288;2023-07-29T14:22:59;0.95;;;0.47;;
32200;SDS011;18701;45.588;5.288;2023-07-29T14:25:26;0.68;;;0.50;;
32200;SDS011;18701;45.588;5.288;2023-07-29T14:27:52;1.45;;;0.70;;
32200;SDS011;18701;45.588;5.288;2023-07-29T14:30:17;1.27;;;0.75;;
32200;SDS011;18701;45.588;5.288;2023-07-29T14:32:43;0.90;;;0.80;;
32200;SDS011;18701;45.588;5.288;2023-07-29T14:35:09;0.98;;;0.52;;
32200;SDS011;18701;45.588;5.288;2023-07-29T14:37:35;1.92;;;0.73;;
32200;SDS011;18701;45.588;5.288;2023-07-29T14:40:00;2.55;;;0.50;;
32200;SDS011;18701;45.588;5.288;2023-07-29T14:42:26;0.90;;;0.63;;
32200;SDS011;18701;45.588;5.288;2023-07-29T14:44:52;0.75;;;0.60;;
32200;SDS011;18701;45.588;5.288;2023-07-29T14:47:18;1.00;;;0.60;;
32200;SDS011;18701;45.588;5.288;2023-07-29T14:49:44;1.23;;;0.75;;
32200;SDS011;18701;45.588;5.288;2023-07-29T14:52:10;2.53;;;0.68;;
32200;SDS011;18701;45.588;5.288;2023-07-29T14:54:36;1.50;;;0.75;;
32200;SDS011;18701;45.588;5.288;2023-07-29T14:57:02;1.70;;;0.68;;
32200;SDS011;18701;45.588;5.288;2023-07-29T14:59:27;1.25;;;0.88;;
32200;SDS011;18701;45.588;5.288;2023-07-29T15:01:53;1.77;;;0.88;;
32200;SDS011;18701;45.588;5.288;2023-07-29T15:04:19;1.80;;;1.00;;
32200;SDS011;18701;45.588;5.288;2023-07-29T15:06:44;1.23;;;0.77;;
32200;SDS011;18701;45.588;5.288;2023-07-29T15:09:10;3.50;;;1.40;;